Time;durP1;ratioP1;P1;durP2;ratioP2;P2;SDS_P1;SDS_P2;PMS_P1;PMS_P2;Temp;Humidity;BMP_temperature;BMP_pressure;BME280_temperature;BME280_humidity;BME280_pressure;Samples;Min_cycle;Max_cycle;Signal;HPM_P1;HPM_P2
2022/04/21 00:01:29;;;;;;;15.63;10.55;;;;;;;6.93;53.40;99652.97;4339863;32;33581;-84
2022/04/21 00:03:58;;;;;;;17.85;9.50;;;;;;;6.82;53.60;99655.09;4355782;32;34512;-84
2022/04/21 00:06:27;;;;;;;14.00;10.02;;;;;;;6.77;53.63;99654.38;4332238;32;32952;-84
2022/04/21 00:08:54;;;;;;;15.27;10.10;;;;;;;6.56;54.27;99645.38;4343006;32;34056;-85
2022/04/21 00:11:23;;;;;;;14.68;10.25;;;;;;;6.77;53.95;99659.63;4336872;32;33483;-85
2022/04/21 00:13:51;;;;;;;17.65;10.70;;;;;;;6.75;53.73;99653.56;4361491;32;34308;-85
2022/04/21 00:16:20;;;;;;;19.48;10.27;;;;;;;6.72;53.58;99649.25;4335967;32;33415;-85
2022/04/21 00:18:48;;;;;;;18.35;11.27;;;;;;;6.74;53.40;99651.81;4351044;32;36245;-85
2022/04/21 00:21:18;;;;;;;20.12;12.63;;;;;;;6.83;53.04;99657.66;4354962;32;32772;-84
2022/04/21 00:23:46;;;;;;;24.05;12.37;;;;;;;6.81;53.28;99648.13;4343818;32;32693;-84
2022/04/21 00:26:15;;;;;;;20.15;12.37;;;;;;;6.77;53.48;99654.38;4355886;32;33318;-82
2022/04/21 00:28:43;;;;;;;19.62;12.13;;;;;;;6.72;53.42;99653.66;4355386;32;33578;-82
2022/04/21 00:31:10;;;;;;;20.25;12.73;;;;;;;6.61;53.62;99653.97;4367306;32;34723;-82
2022/04/21 00:33:39;;;;;;;19.50;12.30;;;;;;;6.69;53.43;99654.59;4330950;32;32847;-82
2022/04/21 00:36:12;;;;;;;23.08;13.85;;;;;;;6.53;54.26;99642.84;4354228;32;34200;-84
2022/04/21 00:38:41;;;;;;;18.02;10.85;;;;;;;6.52;54.19;99641.13;4353788;32;33109;-84
2022/04/21 00:41:09;;;;;;;20.02;11.75;;;;;;;6.49;54.29;99646.47;4342842;32;34298;-84
2022/04/21 00:43:37;;;;;;;19.27;11.12;;;;;;;6.53;54.01;99637.59;4343894;32;32999;-83
2022/04/21 00:46:06;;;;;;;20.75;11.95;;;;;;;6.43;54.34;99639.62;4352900;32;34050;-83
2022/04/21 00:48:34;;;;;;;16.00;10.52;;;;;;;6.67;53.75;99645.91;4355775;32;32882;-82
2022/04/21 00:51:01;;;;;;;21.25;11.50;;;;;;;6.75;53.09;99637.81;4355040;32;34635;-83
2022/04/21 00:53:31;;;;;;;17.75;10.88;;;;;;;6.37;54.35;99638.06;4345037;32;32680;-82
2022/04/21 00:55:58;;;;;;;19.77;11.23;;;;;;;6.05;55.83;99643.34;4354866;32;33392;-83
2022/04/21 00:58:26;;;;;;;20.65;11.82;;;;;;;6.32;54.92;99646.97;4342648;32;33535;-83
2022/04/21 01:00:55;;;;;;;17.77;11.55;;;;;;;6.40;54.45;99645.81;4356021;32;33320;-83
2022/04/21 01:03:23;;;;;;;19.90;11.43;;;;;;;6.38;54.40;99638.91;4354922;32;34322;-83
2022/04/21 01:05:51;;;;;;;18.50;12.30;;;;;;;6.46;54.24;99636.06;4342259;32;33501;-83
2022/04/21 01:08:26;;;;;;;18.75;12.02;;;;;;;6.50;54.15;99638.53;4355864;32;33501;-84
2022/04/21 01:10:54;;;;;;;19.23;12.30;;;;;;;6.28;54.76;99642.72;4352475;32;33835;-83
2022/04/21 01:13:22;;;;;;;18.30;11.02;;;;;;;6.11;55.46;99644.03;4352460;32;32700;-84
2022/04/21 01:15:50;;;;;;;17.15;10.90;;;;;;;6.02;55.44;99646.06;4352421;32;34187;-84
2022/04/21 01:18:27;;;;;;;16.85;11.27;;;;;;;6.07;55.55;99645.00;4342658;32;33059;-83
2022/04/21 01:20:55;;;;;;;19.40;11.20;;;;;;;5.90;56.48;99642.00;4353933;32;34151;-83
2022/04/21 01:23:23;;;;;;;18.83;10.77;;;;;;;5.92;56.43;99634.09;4343418;32;33816;-83
2022/04/21 01:25:52;;;;;;;16.77;10.30;;;;;;;6.05;55.67;99640.72;4356797;32;33077;-83
2022/04/21 01:28:21;;;;;;;16.00;9.48;;;;;;;5.80;56.24;99630.91;4353322;32;33176;-83
2022/04/21 01:30:54;;;;;;;14.98;9.25;;;;;;;5.79;56.09;99644.00;4330410;32;33397;-84
2022/04/21 01:33:23;;;;;;;16.67;9.77;;;;;;;5.77;56.32;99646.69;4351946;32;34927;-83
2022/04/21 01:35:52;;;;;;;15.02;9.40;;;;;;;5.89;55.81;99638.50;4352170;32;33044;-83
2022/04/21 01:41:09;;;;;;;16.62;9.82;;;;;;;5.43;57.22;99643.22;4344003;32;32923;-82
2022/04/21 01:43:43;;;;;;;17.27;10.07;;;;;;;5.69;56.51;99638.16;4355224;32;34163;-85
2022/04/21 01:46:11;;;;;;;16.23;10.15;;;;;;;5.94;55.78;99635.81;4353823;32;33312;-85
2022/04/21 01:48:40;;;;;;;21.58;10.63;;;;;;;5.78;56.50;99632.69;4340718;32;34467;-85
2022/04/21 01:51:08;;;;;;;14.13;10.00;;;;;;;5.79;56.46;99634.44;4360795;32;33614;-83
2022/04/21 01:53:37;;;;;;;16.75;10.20;;;;;;;5.82;56.27;99629.06;4340970;32;32824;-83
2022/04/21 01:56:06;;;;;;;14.30;9.77;;;;;;;6.02;55.52;99625.94;4366295;32;32913;-83
2022/04/21 01:58:34;;;;;;;16.08;10.00;;;;;;;5.76;56.27;99629.25;4355504;32;34482;-83
2022/04/21 02:01:03;;;;;;;18.80;10.48;;;;;;;5.98;55.61;99628.69;4353645;32;33946;-82
2022/04/21 02:03:32;;;;;;;16.10;9.18;;;;;;;6.15;54.82;99622.06;4354090;32;34544;-82
2022/04/21 02:06:00;;;;;;;16.98;9.45;;;;;;;5.80;55.58;99623.03;4341840;32;33142;-83
2022/04/21 02:08:35;;;;;;;16.80;10.07;;;;;;;5.76;55.86;99616.16;4351826;32;33570;-84
2022/04/21 02:11:03;;;;;;;14.65;9.85;;;;;;;5.88;55.51;99623.66;4347698;32;33939;-84
2022/04/21 02:13:31;;;;;;;17.50;10.57;;;;;;;5.78;55.55;99623.97;4353545;32;32550;-84
2022/04/21 02:15:59;;;;;;;15.50;9.70;;;;;;;5.70;55.55;99616.34;4354380;32;33370;-82
2022/04/21 02:18:27;;;;;;;16.70;9.52;;;;;;;5.97;54.97;99611.25;4355935;32;34026;-83
2022/04/21 02:20:55;;;;;;;15.90;10.23;;;;;;;5.84;55.28;99606.34;4357918;32;33545;-83
2022/04/21 02:23:29;;;;;;;16.37;9.75;;;;;;;5.67;55.94;99619.03;4346395;32;34103;-83
2022/04/21 02:25:58;;;;;;;19.15;10.68;;;;;;;5.75;55.84;99603.97;4354684;32;33337;-83
2022/04/21 02:28:26;;;;;;;15.70;9.27;;;;;;;5.55;56.48;99607.09;4356958;32;33693;-85
2022/04/21 02:30:54;;;;;;;14.77;9.85;;;;;;;5.71;55.83;99610.19;4354061;32;33996;-83
2022/04/21 02:33:22;;;;;;;13.80;9.13;;;;;;;5.53;56.05;99605.44;4354660;32;33092;-82
2022/04/21 02:35:50;;;;;;;13.30;8.50;;;;;;;5.65;55.76;99605.13;4357548;32;33092;-82
2022/04/21 02:38:19;;;;;;;15.30;9.57;;;;;;;5.64;55.81;99611.22;4355682;32;34760;-82
2022/04/21 02:40:47;;;;;;;15.73;10.10;;;;;;;5.69;55.58;99601.50;4358643;32;34438;-83
2022/04/21 02:43:14;;;;;;;18.87;11.38;;;;;;;5.76;55.52;99613.53;4344284;32;34582;-83
2022/04/21 02:45:43;;;;;;;18.08;11.05;;;;;;;5.59;56.23;99606.13;4356952;32;33526;-83
2022/04/21 02:48:11;;;;;;;18.98;10.27;;;;;;;5.51;56.53;99604.63;4359115;32;33802;-84
2022/04/21 02:50:40;;;;;;;17.58;10.50;;;;;;;5.63;56.03;99606.91;4368975;32;33801;-85
2022/04/21 02:53:08;;;;;;;16.30;9.85;;;;;;;5.49;56.24;99614.25;4345875;32;32655;-84
2022/04/21 02:58:24;;;;;;;19.30;10.70;;;;;;;5.31;56.71;99611.19;4358906;32;34530;-83
2022/04/21 03:00:52;;;;;;;18.15;10.00;;;;;;;5.53;55.95;99606.28;4357143;32;33277;-83
2022/04/21 03:03:20;;;;;;;18.65;10.85;;;;;;;5.46;56.10;99601.22;4357505;32;33777;-83
2022/04/21 03:05:48;;;;;;;19.27;11.30;;;;;;;5.43;56.38;99603.97;4355252;32;32339;-83
2022/04/21 03:08:16;;;;;;;18.77;10.95;;;;;;;5.52;56.23;99608.94;4355553;32;33536;-85
2022/04/21 03:10:44;;;;;;;22.85;12.55;;;;;;;5.58;55.79;99603.53;4370436;32;33967;-84
2022/04/21 03:13:16;;;;;;;16.98;11.07;;;;;;;5.40;56.46;99604.87;4358085;32;34558;-84
2022/04/21 03:15:45;;;;;;;21.35;11.40;;;;;;;5.17;57.67;99609.84;4358167;32;32363;-85
2022/04/21 03:18:12;;;;;;;20.55;11.60;;;;;;;5.18;57.86;99614.19;4356402;32;33776;-84
2022/04/21 03:26:17;;;;;;;19.73;10.60;;;;;;;5.24;57.31;99599.19;4358701;32;33342;-85
2022/04/21 03:28:45;;;;;;;17.27;9.55;;;;;;;5.09;57.71;99610.91;4358837;32;34233;-85
2022/04/21 03:31:13;;;;;;;18.77;10.57;;;;;;;5.15;56.94;99615.13;4356741;32;34747;-84
2022/04/21 03:33:42;;;;;;;17.05;9.65;;;;;;;5.28;56.66;99610.44;4368160;32;33853;-84
2022/04/21 03:36:11;;;;;;;19.30;9.45;;;;;;;5.25;57.19;99615.75;4344804;32;33496;-84
2022/04/21 03:38:39;;;;;;;17.45;9.80;;;;;;;5.25;57.09;99611.38;4341739;32;32934;-84
2022/04/21 03:41:06;;;;;;;19.60;11.27;;;;;;;5.42;56.51;99612.72;4369296;32;34755;-84
2022/04/21 03:43:35;;;;;;;18.83;10.73;;;;;;;5.40;56.58;99621.44;4356881;32;33573;-84
2022/04/21 03:46:04;;;;;;;17.00;9.93;;;;;;;5.20;56.83;99612.37;4362095;32;33032;-84
2022/04/21 03:48:36;;;;;;;18.08;9.73;;;;;;;5.13;57.07;99617.78;4357681;32;33011;-84
2022/04/21 03:51:03;;;;;;;16.85;10.75;;;;;;;5.18;57.06;99614.19;4355734;32;33469;-84
2022/04/21 03:53:36;;;;;;;16.12;10.20;;;;;;;5.09;57.63;99612.66;4346664;32;33303;-84
2022/04/21 03:56:07;;;;;;;17.12;10.23;;;;;;;5.26;57.18;99610.47;4355481;32;32587;-84
2022/04/21 03:58:37;;;;;;;18.87;10.07;;;;;;;5.18;57.31;99609.81;4371873;32;33933;-81
2022/04/21 04:01:05;;;;;;;19.15;11.05;;;;;;;5.25;56.94;99619.22;4357963;32;33127;-81
2022/04/21 04:03:34;;;;;;;16.73;10.52;;;;;;;5.20;57.25;99618.47;4342944;32;32794;-81
2022/04/21 04:06:01;;;;;;;22.02;11.07;;;;;;;5.12;57.38;99621.28;4342379;32;33794;-81
2022/04/21 04:11:16;;;;;;;18.92;11.23;;;;;;;5.15;57.49;99630.81;4356697;32;33909;-81
2022/04/21 04:13:44;;;;;;;18.83;11.10;;;;;;;5.25;57.42;99628.84;4367336;32;34117;-80
2022/04/21 04:16:21;;;;;;;17.20;10.35;;;;;;;5.12;57.83;99630.88;4355872;32;33694;-81
2022/04/21 04:18:49;;;;;;;20.83;11.05;;;;;;;5.09;58.07;99629.22;4349675;32;33488;-81
2022/04/21 04:21:18;;;;;;;16.50;10.55;;;;;;;5.30;57.69;99630.44;4355930;32;32806;-81
2022/04/21 04:23:50;;;;;;;17.60;10.45;;;;;;;5.44;57.41;99624.00;4344466;32;33253;-81
2022/04/21 04:26:24;;;;;;;16.35;10.50;;;;;;;5.22;58.57;99635.03;4345449;32;31961;-80
2022/04/21 04:28:54;;;;;;;21.92;12.30;;;;;;;5.48;57.61;99628.25;4356658;32;33601;-80
2022/04/21 04:31:23;;;;;;;19.45;10.93;;;;;;;5.57;57.43;99633.25;4344249;32;33039;-80
2022/04/21 04:33:51;;;;;;;19.02;11.55;;;;;;;5.73;57.18;99631.09;4341367;32;32760;-80
2022/04/21 04:36:19;;;;;;;18.05;10.45;;;;;;;5.80;56.99;99630.91;4344077;32;33224;-80
2022/04/21 04:38:48;;;;;;;18.10;11.38;;;;;;;6.15;56.08;99631.72;4340983;32;33013;-80
2022/04/21 04:46:43;;;;;;;22.45;11.73;;;;;;;6.18;56.59;99634.25;4340117;32;31488;-80
2022/04/21 04:51:50;;;;;;;17.33;10.75;;;;;;;6.26;56.45;99640.13;4338504;32;33308;-80
2022/04/21 04:54:19;;;;;;;22.80;11.70;;;;;;;6.34;56.11;99643.37;4346446;32;33740;-80
2022/04/21 04:56:48;;;;;;;20.37;10.85;;;;;;;6.50;55.44;99635.06;4356550;32;33744;-80
2022/04/21 04:59:16;;;;;;;17.45;11.77;;;;;;;6.54;55.21;99634.06;4344105;32;33390;-80
2022/04/21 05:01:45;;;;;;;17.45;10.93;;;;;;;6.53;55.13;99627.09;4343940;32;33107;-80
2022/04/21 05:04:20;;;;;;;19.00;11.40;;;;;;;6.66;55.12;99641.59;4342734;32;33832;-80
2022/04/21 05:06:54;;;;;;;26.25;12.50;;;;;;;6.84;55.20;99638.41;4357705;32;33341;-81
2022/04/21 05:09:26;;;;;;;22.23;13.43;;;;;;;7.60;54.58;99637.66;4342676;32;34925;-80
2022/04/21 05:11:58;;;;;;;22.90;12.95;;;;;;;7.82;53.54;99624.62;4349301;32;33723;-79
2022/04/21 05:14:29;;;;;;;26.00;13.65;;;;;;;7.87;54.41;99629.72;4347746;32;33893;-80
2022/04/21 05:16:58;;;;;;;27.45;13.07;;;;;;;7.89;54.70;99626.13;4352366;32;32659;-80
2022/04/21 05:19:28;;;;;;;22.55;13.27;;;;;;;8.36;54.25;99630.59;4328243;33;32986;-80
2022/04/21 05:22:02;;;;;;;23.87;13.88;;;;;;;8.46;52.82;99627.59;4334898;33;33966;-80
2022/04/21 05:24:33;;;;;;;22.20;14.18;;;;;;;8.75;52.85;99622.13;4322549;33;32371;-79
2022/04/21 05:27:10;;;;;;;24.87;12.30;;;;;;;8.94;51.23;99618.69;4348127;33;34273;-80
2022/04/21 05:32:37;;;;;;;19.70;10.68;;;;;;;9.12;50.21;99622.38;4336766;33;34351;-80
2022/04/21 05:35:07;;;;;;;20.23;9.77;;;;;;;9.25;50.28;99612.16;4342080;33;33931;-80
2022/04/21 05:37:38;;;;;;;16.12;10.15;;;;;;;9.38;49.71;99623.91;4338674;33;33322;-80
2022/04/21 05:40:33;;;;;;;15.50;9.93;;;;;;;9.60;50.30;99615.97;4337926;33;33629;-80
2022/04/21 05:43:03;;;;;;;18.37;10.00;;;;;;;9.82;48.64;99607.97;4353546;32;34022;-80
2022/04/21 05:45:32;;;;;;;13.43;8.32;;;;;;;9.88;48.83;99607.75;4334250;33;34207;-84
2022/04/21 05:48:01;;;;;;;14.73;8.52;;;;;;;9.95;48.63;99601.25;4338973;33;32830;-84
2022/04/21 05:50:35;;;;;;;16.95;9.63;;;;;;;10.05;47.33;99603.47;4339488;33;33563;-84
2022/04/21 05:53:04;;;;;;;15.30;9.65;;;;;;;10.23;48.19;99600.88;4346925;33;33844;-84
2022/04/21 05:55:35;;;;;;;15.75;10.13;;;;;;;10.35;47.97;99601.25;4336143;32;32880;-84
2022/04/21 05:58:03;;;;;;;19.17;9.57;;;;;;;10.48;46.46;99608.53;4338896;32;32502;-84
2022/04/21 06:00:34;;;;;;;13.05;9.48;;;;;;;10.63;47.25;99606.13;4340633;33;33532;-86
2022/04/21 06:03:02;;;;;;;14.32;9.43;;;;;;;10.77;45.75;99607.19;4360962;32;35087;-86
2022/04/21 06:05:31;;;;;;;19.98;9.70;;;;;;;11.00;44.80;99600.78;4361467;32;32287;-84
2022/04/21 06:08:09;;;;;;;15.82;10.20;;;;;;;11.13;46.34;99601.06;4339131;32;33356;-84
2022/04/21 06:10:40;;;;;;;13.85;8.52;;;;;;;11.30;45.87;99600.25;4361580;32;33894;-83
2022/04/21 06:13:12;;;;;;;12.95;9.43;;;;;;;11.60;44.25;99592.53;4351001;32;33490;-83
2022/04/21 06:15:41;;;;;;;13.27;9.05;;;;;;;11.86;43.92;99595.66;4351931;32;32357;-83
2022/04/21 06:18:09;;;;;;;14.38;9.95;;;;;;;12.17;42.22;99592.25;4352981;32;33285;-83
2022/04/21 06:20:40;;;;;;;12.93;8.38;;;;;;;12.17;42.49;99589.59;4352412;32;33597;-83
2022/04/21 06:23:09;;;;;;;12.15;8.73;;;;;;;11.84;42.05;99595.75;4353375;32;34102;-83
2022/04/21 06:25:42;;;;;;;11.68;7.43;;;;;;;12.27;42.89;99596.09;4352326;32;33907;-83
2022/04/21 06:28:12;;;;;;;10.52;6.72;;;;;;;12.12;42.25;99596.94;4348408;33;33188;-83
2022/04/21 06:30:40;;;;;;;12.55;6.07;;;;;;;12.05;41.63;99593.75;4340877;32;32717;-83
2022/04/21 06:33:17;;;;;;;10.00;6.82;;;;;;;12.13;41.51;99593.34;4339121;33;33681;-83
2022/04/21 06:35:45;;;;;;;12.45;7.45;;;;;;;12.48;40.64;99581.69;4343026;33;32255;-83
2022/04/21 06:38:14;;;;;;;13.65;8.10;;;;;;;12.91;41.83;99583.75;4352298;32;33511;-83
2022/04/21 06:40:43;;;;;;;11.35;6.78;;;;;;;12.98;40.54;99588.63;4352062;32;34303;-83
2022/04/21 06:48:46;;;;;;;8.45;6.45;;;;;;;14.01;37.98;99570.16;4350057;32;34002;-83
2022/04/21 06:51:18;;;;;;;;;;;;;;;13.94;38.64;99579.44;4342363;33;32753;-83
2022/04/21 06:53:47;;;;;;;10.57;6.70;;;;;;;14.17;38.11;99566.56;4349672;32;33860;-83
2022/04/21 06:56:17;;;;;;;6.72;4.95;;;;;;;14.16;39.28;99565.72;4347644;32;34160;-83
2022/04/21 06:58:50;;;;;;;5.85;4.28;;;;;;;14.77;36.63;99564.50;4337420;33;33716;-83
2022/04/21 07:01:20;;;;;;;5.40;4.70;;;;;;;14.78;37.34;99568.03;4340108;33;33524;-83
2022/04/21 07:03:48;;;;;;;5.15;4.62;;;;;;;15.22;35.25;99559.78;4348844;32;34042;-84
2022/04/21 07:06:20;;;;;;;4.37;3.53;;;;;;;15.39;35.15;99558.66;4339988;33;33463;-85
2022/04/21 07:08:49;;;;;;;4.55;3.15;;;;;;;15.47;34.64;99552.78;4349456;32;32775;-87
2022/04/21 07:11:20;;;;;;;3.97;3.22;;;;;;;15.45;34.67;99560.91;4348295;32;33871;-87
2022/04/21 07:13:51;;;;;;;4.90;2.70;;;;;;;15.90;35.37;99550.72;4351218;32;34652;-88
2022/04/21 07:16:20;;;;;;;3.45;2.58;;;;;;;15.87;32.67;99554.47;4349389;32;32999;-89
2022/04/21 07:18:50;;;;;;;3.62;2.85;;;;;;;15.05;35.18;99560.91;4342294;32;32567;-89
2022/04/21 07:23:55;;;;;;;6.75;2.37;;;;;;;15.31;33.90;99559.16;4353476;32;34506;-89
2022/04/21 07:26:25;;;;;;;4.45;2.78;;;;;;;15.05;33.73;99565.38;4355175;32;33747;-88
2022/04/21 07:28:57;;;;;;;4.57;3.45;;;;;;;14.93;34.67;99566.16;4357178;32;33380;-89
2022/04/21 07:31:35;;;;;;;4.25;3.03;;;;;;;15.17;34.07;99566.34;4354408;32;33974;-82
2022/04/21 07:34:04;;;;;;;3.22;2.83;;;;;;;15.21;32.78;99563.41;4343556;32;33988;-82
2022/04/21 07:36:34;;;;;;;3.30;2.95;;;;;;;15.65;32.25;99561.38;4353407;32;34113;-82
2022/04/21 07:39:04;;;;;;;;;;;;;;;15.88;32.48;99556.16;4354901;32;33304;-82
2022/04/21 07:41:37;;;;;;;2.58;2.33;;;;;;;15.17;31.64;99566.34;4340806;32;32926;-83
2022/04/21 07:44:09;;;;;;;5.35;3.28;;;;;;;15.13;32.19;99560.38;4367366;32;33774;-82
2022/04/21 07:46:38;;;;;;;3.92;3.37;;;;;;;15.29;32.44;99560.22;4355049;32;34073;-85
2022/04/21 07:54:52;;;;;;;5.40;3.92;;;;;;;16.01;31.52;99553.50;4362888;32;33323;-85
2022/04/21 07:57:20;;;;;;;4.12;3.42;;;;;;;15.54;31.67;99567.41;4350261;32;32712;-85
2022/04/21 07:59:51;;;;;;;5.47;3.17;;;;;;;15.59;32.11;99566.13;4353149;32;33730;-85
2022/04/21 08:02:20;;;;;;;5.25;3.05;;;;;;;15.72;32.64;99563.53;4335444;33;32516;-85
2022/04/21 08:04:52;;;;;;;4.15;3.10;;;;;;;15.71;31.27;99563.62;4339937;32;33617;-85
2022/04/21 08:07:22;;;;;;;3.90;2.87;;;;;;;16.12;31.34;99545.59;4347882;33;34593;-85
2022/04/21 08:09:51;;;;;;;3.62;2.72;;;;;;;15.66;31.28;99555.94;4359967;32;34139;-85
2022/04/21 08:12:20;;;;;;;3.53;3.22;;;;;;;16.15;31.12;99557.03;4354221;32;33282;-88
2022/04/21 08:14:51;;;;;;;5.05;3.33;;;;;;;16.17;30.20;99547.09;4355049;32;33053;-89
2022/04/21 08:17:20;;;;;;;3.67;3.08;;;;;;;15.94;31.43;99562.88;4341084;32;33118;-88
2022/04/21 08:19:48;;;;;;;4.10;2.95;;;;;;;16.70;32.31;99563.72;4340116;32;33707;-88
2022/04/21 08:22:20;;;;;;;3.45;3.15;;;;;;;16.71;30.24;99562.75;4352791;32;34186;-88
2022/04/21 08:33:33;;;;;;;3.70;3.35;;;;;;;15.97;31.14;99557.34;4351092;32;32998;-80
2022/04/21 08:36:06;;;;;;;;;;;;;;;16.50;30.62;99558.00;4342905;33;34006;-80
2022/04/21 08:38:37;;;;;;;3.95;3.35;;;;;;;16.56;31.40;99554.06;4352852;32;34161;-81
2022/04/21 08:41:09;;;;;;;3.78;3.40;;;;;;;16.36;30.36;99555.50;4347735;33;33382;-81
2022/04/21 08:43:38;;;;;;;4.15;3.58;;;;;;;16.64;30.48;99551.69;4353401;32;33824;-80
2022/04/21 08:46:08;;;;;;;2.92;2.72;;;;;;;17.57;30.98;99550.09;4352304;32;34013;-81
2022/04/21 08:48:39;;;;;;;4.15;3.25;;;;;;;17.40;29.19;99546.03;4338549;33;33265;-80
2022/04/21 08:51:09;;;;;;;3.10;2.80;;;;;;;17.37;28.72;99550.72;4339402;32;32716;-82
2022/04/21 08:53:40;;;;;;;4.43;2.80;;;;;;;17.96;29.02;99547.16;4364496;32;34303;-81
2022/04/21 08:56:13;;;;;;;3.30;2.97;;;;;;;18.37;29.39;99541.19;4363871;32;34036;-81
2022/04/21 08:58:42;;;;;;;3.50;2.80;;;;;;;18.44;29.10;99553.09;4339960;33;33646;-81
2022/04/21 09:01:12;;;;;;;4.90;3.20;;;;;;;18.08;27.83;99551.50;4352546;32;32250;-81
2022/04/21 09:03:49;;;;;;;3.92;3.10;;;;;;;18.14;27.19;99557.25;4353427;32;34628;-81
2022/04/21 09:06:25;;;;;;;4.30;3.90;;;;;;;18.35;26.07;99548.50;4341147;33;34472;-81
2022/04/21 09:09:13;;;;;;;4.53;4.05;;;;;;;18.02;28.38;99552.00;4352327;32;32533;-81
2022/04/21 09:11:45;;;;;;;4.70;3.03;;;;;;;18.50;29.34;99552.59;4345827;32;32375;-81
2022/04/21 09:14:15;;;;;;;4.10;3.70;;;;;;;18.76;28.22;99547.84;4348139;32;32659;-81
2022/04/21 09:16:44;;;;;;;4.25;3.55;;;;;;;18.21;28.59;99551.41;4344314;32;34107;-81
2022/04/21 09:19:14;;;;;;;3.28;2.97;;;;;;;18.28;27.56;99553.47;4354778;32;33781;-81
2022/04/21 09:21:43;;;;;;;5.05;3.10;;;;;;;18.34;29.90;99546.78;4355999;32;33507;-81
2022/04/21 09:24:25;;;;;;;4.28;3.87;;;;;;;17.97;29.11;99555.03;4356174;32;33915;-81
2022/04/21 09:26:56;;;;;;;4.15;3.53;;;;;;;17.72;29.40;99550.72;4354864;32;33855;-81
2022/04/21 09:29:30;;;;;;;4.28;3.87;;;;;;;18.09;28.49;99558.59;4356737;32;34524;-81
2022/04/21 09:32:02;;;;;;;3.67;3.37;;;;;;;18.32;27.48;99552.25;4353767;32;34081;-81
2022/04/21 09:34:37;;;;;;;5.15;3.67;;;;;;;18.23;28.09;99555.66;4351772;32;33900;-81
2022/04/21 09:37:07;;;;;;;4.57;3.28;;;;;;;18.49;27.71;99545.56;4346412;32;33001;-81
2022/04/21 09:39:41;;;;;;;4.35;3.95;;;;;;;18.85;27.61;99551.63;4352330;32;34476;-81
2022/04/21 09:42:09;;;;;;;4.72;3.83;;;;;;;17.70;29.39;99565.16;4355936;32;33374;-81
2022/04/21 09:47:31;;;;;;;3.58;3.28;;;;;;;19.80;27.32;99543.66;4360755;32;34399;-81
2022/04/21 09:50:13;;;;;;;4.57;4.12;;;;;;;19.68;27.67;99533.00;4355354;32;34566;-81
2022/04/21 09:52:51;;;;;;;5.43;3.87;;;;;;;19.68;26.50;99534.84;4337429;32;33243;-84
2022/04/21 09:55:24;;;;;;;11.63;3.50;;;;;;;19.36;27.25;99541.06;4348783;32;33147;-83
2022/04/21 09:58:04;;;;;;;3.35;2.90;;;;;;;19.30;26.57;99540.72;4349087;32;33409;-83
2022/04/21 10:00:37;;;;;;;4.62;2.62;;;;;;;19.06;26.30;99544.47;4343160;32;34525;-83
2022/04/21 10:03:07;;;;;;;4.35;3.20;;;;;;;19.08;25.94;99542.50;4354328;32;34773;-83
2022/04/21 10:05:40;;;;;;;4.37;3.17;;;;;;;18.94;26.49;99532.09;4348880;32;32736;-82
2022/04/21 10:08:10;;;;;;;3.00;2.70;;;;;;;18.79;27.58;99533.38;4354685;32;34824;-84
2022/04/21 10:10:46;;;;;;;4.50;2.67;;;;;;;19.59;26.01;99523.03;4344531;32;32339;-83
2022/04/21 10:13:21;;;;;;;5.90;3.62;;;;;;;19.29;26.18;99518.47;4351424;32;32609;-83
2022/04/21 10:15:51;;;;;;;4.75;3.12;;;;;;;19.03;28.53;99527.81;4354808;32;34329;-83
2022/04/21 10:18:21;;;;;;;3.60;3.10;;;;;;;19.99;26.80;99521.44;4351700;32;33707;-83
2022/04/21 10:20:54;;;;;;;5.12;2.95;;;;;;;19.98;26.22;99525.12;4351635;32;33786;-83
2022/04/21 10:23:28;;;;;;;3.40;2.83;;;;;;;20.19;24.71;99524.09;4342654;33;33366;-83
2022/04/21 10:26:03;;;;;;;4.70;4.25;;;;;;;20.10;26.00;99516.03;4322967;33;33150;-83
2022/04/21 10:28:58;;;;;;;3.12;2.70;;;;;;;19.67;27.28;99509.88;4337325;33;34776;-83
2022/04/21 10:31:35;;;;;;;4.57;4.00;;;;;;;19.14;26.33;99514.41;4339874;33;34296;-83
2022/04/21 10:34:07;;;;;;;3.90;3.53;;;;;;;19.06;26.62;99522.22;4349626;32;33173;-83
2022/04/21 10:36:46;;;;;;;3.50;2.97;;;;;;;18.87;26.79;99517.53;4338910;33;32317;-83
2022/04/21 10:39:19;;;;;;;3.80;3.45;;;;;;;18.99;26.72;99518.34;4361651;32;33872;-83
2022/04/21 10:42:11;;;;;;;3.70;3.35;;;;;;;19.98;25.17;99498.31;4339483;33;34181;-83
2022/04/21 10:44:50;;;;;;;8.95;4.50;;;;;;;19.92;26.02;99494.34;4354287;32;32785;-83
2022/04/21 10:47:35;;;;;;;4.07;3.67;;;;;;;19.36;24.44;99498.22;4333098;33;33133;-83
2022/04/21 10:50:12;;;;;;;7.57;3.80;;;;;;;19.28;26.05;99495.38;4324966;33;32766;-83
2022/04/21 10:57:58;;;;;;;5.62;3.28;;;;;;;19.22;26.03;99484.31;4346477;33;34651;-83
2022/04/21 11:00:30;;;;;;;8.40;4.55;;;;;;;19.95;26.58;99483.37;4347263;33;34017;-83
2022/04/21 11:03:07;;;;;;;4.45;4.03;;;;;;;18.98;25.88;99495.25;4329728;33;33056;-84
2022/04/21 11:05:40;;;;;;;4.25;3.85;;;;;;;19.74;26.97;99491.44;4347336;33;33656;-83
2022/04/21 11:08:14;;;;;;;4.22;3.85;;;;;;;19.75;26.05;99486.94;4355846;32;32838;-83
2022/04/21 11:10:46;;;;;;;4.68;3.50;;;;;;;19.55;29.30;99473.41;4342408;32;33356;-83
2022/04/21 11:13:20;;;;;;;6.37;4.28;;;;;;;20.47;25.78;99473.44;4355026;32;34540;-83
2022/04/21 11:15:50;;;;;;;4.87;4.25;;;;;;;20.19;26.14;99472.31;4342704;32;33716;-82
2022/04/21 11:18:31;;;;;;;5.80;4.25;;;;;;;19.69;27.87;99477.59;4352326;32;32980;-82
2022/04/21 11:21:23;;;;;;;4.82;4.32;;;;;;;19.32;26.91;99474.50;4335779;33;34392;-83
2022/04/21 11:23:52;;;;;;;4.62;3.85;;;;;;;19.31;25.96;99478.19;4349333;32;33316;-82
2022/04/21 11:26:28;;;;;;;5.18;3.62;;;;;;;18.93;25.56;99466.19;4328126;33;32943;-82
2022/04/21 11:29:02;;;;;;;4.22;3.83;;;;;;;18.95;26.99;99472.28;4343303;33;32444;-82
2022/04/21 11:31:31;;;;;;;4.10;3.33;;;;;;;19.16;31.69;99462.44;4341534;32;33694;-82
2022/04/21 11:34:03;;;;;;;5.43;3.65;;;;;;;19.22;26.57;99465.56;4328897;33;32632;-82
2022/04/21 11:36:36;;;;;;;4.03;3.55;;;;;;;19.29;27.21;99464.09;4326437;33;33043;-82
2022/04/21 11:39:07;;;;;;;4.65;3.60;;;;;;;19.52;27.76;99464.81;4362283;32;33571;-82
2022/04/21 11:41:44;;;;;;;4.25;3.47;;;;;;;19.82;26.53;99450.59;4350837;32;34006;-82
2022/04/21 11:44:20;;;;;;;3.70;3.17;;;;;;;19.83;26.42;99458.50;4351273;32;33747;-82
2022/04/21 11:46:49;;;;;;;5.40;2.92;;;;;;;20.81;25.31;99446.22;4338361;33;32599;-82
2022/04/21 11:49:18;;;;;;;3.83;3.53;;;;;;;20.38;27.34;99452.75;4346832;33;33144;-82
2022/04/21 11:51:53;;;;;;;6.00;3.50;;;;;;;19.95;23.91;99448.53;4354559;32;33597;-82
2022/04/21 11:54:25;;;;;;;5.35;3.40;;;;;;;20.30;24.76;99452.59;4352241;32;33892;-82
2022/04/21 11:56:57;;;;;;;3.60;3.22;;;;;;;21.14;24.88;99440.41;4342025;33;33509;-82
2022/04/21 11:59:38;;;;;;;3.10;2.80;;;;;;;21.44;23.71;99425.94;4341314;33;33757;-82
2022/04/21 12:07:42;;;;;;;4.62;2.92;;;;;;;20.71;25.16;99438.16;4343553;33;33755;-82
2022/04/21 12:10:10;;;;;;;4.45;3.55;;;;;;;20.27;25.30;99443.00;4334949;33;33472;-83
2022/04/21 12:12:39;;;;;;;5.05;2.97;;;;;;;20.71;27.36;99433.62;4351368;32;33219;-82
2022/04/21 12:15:09;;;;;;;4.20;3.47;;;;;;;21.05;23.86;99429.69;4337449;33;33917;-83
2022/04/21 12:17:44;;;;;;;3.85;3.55;;;;;;;19.89;23.50;99430.31;4340381;32;32703;-88
2022/04/21 12:20:19;;;;;;;6.28;4.12;;;;;;;20.57;24.40;99426.00;4339131;33;33680;-88
2022/04/21 12:22:49;;;;;;;4.28;3.87;;;;;;;21.01;23.95;99423.75;4344243;32;32933;-88
2022/04/21 12:25:17;;;;;;;3.90;3.45;;;;;;;21.45;27.34;99416.06;4347535;32;33958;-88
2022/04/21 12:27:46;;;;;;;5.62;3.28;;;;;;;21.02;25.81;99417.38;4351715;32;33326;-88
2022/04/21 12:30:17;;;;;;;9.90;3.92;;;;;;;21.92;23.63;99397.19;4350233;32;32937;-88
2022/04/21 12:32:49;;;;;;;3.92;3.45;;;;;;;21.19;24.88;99415.81;4347007;32;32598;-88
2022/04/21 12:35:46;;;;;;;3.60;3.15;;;;;;;21.08;24.50;99410.59;4336633;33;32476;-88
2022/04/21 12:41:10;;;;;;;3.53;3.22;;;;;;;21.44;24.90;99403.62;4335842;33;32821;-87
2022/04/21 12:43:39;;;;;;;4.12;3.45;;;;;;;22.42;23.26;99399.50;4350486;32;35106;-87
2022/04/21 12:46:09;;;;;;;3.87;3.58;;;;;;;22.52;22.82;99402.12;4348504;32;34438;-88
2022/04/21 12:48:50;;;;;;;5.50;3.40;;;;;;;21.68;23.71;99408.47;4341976;32;33355;-88
2022/04/21 12:51:23;;;;;;;5.18;3.78;;;;;;;21.63;22.83;99408.94;4335035;32;31773;-88
2022/04/21 12:53:59;;;;;;;6.68;3.60;;;;;;;21.18;24.74;99414.13;4337692;33;33081;-88